createdAt,value
2022-11-12T00:00:22.337Z,2.75
2022-11-12T00:05:25.621Z,2.45
2022-11-12T00:10:28.756Z,2.65
2022-11-12T00:15:33.082Z,2.47
2022-11-12T00:20:36.307Z,2.55
2022-11-12T00:25:39.370Z,2.60
2022-11-12T00:30:43.678Z,2.63
2022-11-12T00:35:46.642Z,2.72
2022-11-12T00:40:49.614Z,2.70
2022-11-12T00:45:53.931Z,2.65
2022-11-12T00:51:01.765Z,2.50
2022-11-12T00:56:06.489Z,2.65
2022-11-12T01:01:12.678Z,2.53
2022-11-12T01:06:18.558Z,2.50
2022-11-12T01:11:24.039Z,2.33
2022-11-12T01:16:31.303Z,2.72
2022-11-12T01:21:35.005Z,2.70
2022-11-12T01:26:39.302Z,2.63
2022-11-12T01:31:43.603Z,2.30
2022-11-12T01:36:46.554Z,2.35
2022-11-12T01:41:49.506Z,2.20
2022-11-12T01:47:07.741Z,2.13
2022-11-12T01:52:17.953Z,2.42
2022-11-12T01:57:30.628Z,2.35
2022-11-12T02:02:38.777Z,2.38
2022-11-12T02:07:45.034Z,2.45
2022-11-12T02:13:06.309Z,2.40
2022-11-12T02:18:10.743Z,2.45
2022-11-12T02:23:15.074Z,2.40
2022-11-12T02:28:18.705Z,2.22
2022-11-12T02:33:21.692Z,2.30
2022-11-12T02:38:26.570Z,2.20
2022-11-12T02:43:29.964Z,2.30
2022-11-12T02:48:32.936Z,2.33
2022-11-12T02:53:37.274Z,2.03
2022-11-12T02:58:40.221Z,1.95
2022-11-12T03:03:43.170Z,1.95
2022-11-12T03:08:47.615Z,2.00
2022-11-12T03:13:50.699Z,2.10
2022-11-12T03:18:53.645Z,2.10
2022-11-12T03:23:57.937Z,2.70
2022-11-12T03:29:00.934Z,1.83
2022-11-12T03:34:03.913Z,2.22
2022-11-12T03:39:08.432Z,2.10
2022-11-12T03:44:11.381Z,2.28
2022-11-12T03:49:14.353Z,2.30
2022-11-12T03:54:20.097Z,2.03
2022-11-12T03:59:23.058Z,1.98
2022-11-12T04:04:46.083Z,2.30
2022-11-12T04:09:50.398Z,2.00
2022-11-12T04:14:53.373Z,2.00
2022-11-12T04:20:13.774Z,2.13
2022-11-12T04:25:35.579Z,2.08
2022-11-12T04:30:38.518Z,2.05
2022-11-12T04:35:41.747Z,2.03
2022-11-12T04:41:17.770Z,2.00
2022-11-12T04:46:20.727Z,2.08
2022-11-12T04:51:40.903Z,1.70
2022-11-12T04:56:45.214Z,1.88
2022-11-12T05:01:48.181Z,1.98
2022-11-12T05:06:54.363Z,2.20
2022-11-12T05:11:59.140Z,2.15
2022-11-12T05:17:02.762Z,1.83
2022-11-12T05:22:13.899Z,2.30
2022-11-12T05:27:26.537Z,2.08
2022-11-12T05:32:29.870Z,1.83
2022-11-12T05:37:33.905Z,1.75
2022-11-12T05:42:38.260Z,1.90
2022-11-12T05:47:41.232Z,1.77
2022-11-12T05:52:44.222Z,1.95
2022-11-12T05:57:48.553Z,2.10
2022-11-12T06:02:51.578Z,2.13
2022-11-12T06:07:54.547Z,2.03
2022-11-12T06:12:58.895Z,2.03
2022-11-12T06:18:01.859Z,2.45
2022-11-12T06:23:05.479Z,2.67
2022-11-12T06:28:09.827Z,2.22
2022-11-12T06:33:13.001Z,2.92
2022-11-12T06:38:15.954Z,3.08
2022-11-12T06:43:20.290Z,3.33
2022-11-12T06:48:23.366Z,2.88
2022-11-12T06:53:26.492Z,2.80
2022-11-12T06:58:31.098Z,2.83
2022-11-12T07:03:34.114Z,2.85
2022-11-12T07:08:37.679Z,2.95
2022-11-12T07:13:42.064Z,3.25
2022-11-12T07:18:45.635Z,2.92
2022-11-12T07:23:48.858Z,3.38
2022-11-12T07:28:56.459Z,3.28
2022-11-12T07:33:59.593Z,3.92
2022-11-12T07:39:02.572Z,3.25
2022-11-12T07:44:07.189Z,3.35
2022-11-12T07:49:10.204Z,3.03
2022-11-12T07:54:13.750Z,3.28
2022-11-12T07:59:18.108Z,3.88
2022-11-12T08:04:21.270Z,3.40
2022-11-12T08:09:24.238Z,3.38
2022-11-12T08:14:28.564Z,3.80
2022-11-12T08:19:31.534Z,2.63
2022-11-12T08:24:34.485Z,3.63
2022-11-12T08:29:38.785Z,3.30
2022-11-12T08:34:43.705Z,3.13
2022-11-12T08:39:46.717Z,3.22
2022-11-12T08:44:51.164Z,3.10
2022-11-12T08:49:54.225Z,3.30
2022-11-12T08:54:57.259Z,3.03
2022-11-12T09:00:01.686Z,2.80
2022-11-12T09:05:05.388Z,3.05
2022-11-12T09:10:09.098Z,2.75
2022-11-12T09:20:36.707Z,3.08
2022-11-12T09:25:40.191Z,2.80
2022-11-12T09:30:46.784Z,2.90
2022-11-12T09:35:50.359Z,2.42
2022-11-12T09:41:11.533Z,2.30
2022-11-12T09:46:28.008Z,2.80
2022-11-12T09:51:35.106Z,2.35
2022-11-12T09:56:38.214Z,2.65
2022-11-12T10:01:51.131Z,2.35
2022-11-12T10:07:01.476Z,2.47
2022-11-12T10:12:40.329Z,2.40
2022-11-12T10:17:53.150Z,2.67
2022-11-12T10:23:13.969Z,2.08
2022-11-12T10:28:31.840Z,2.22
2022-11-12T10:33:38.644Z,2.60
2022-11-12T10:38:44.788Z,2.40
2022-11-12T10:43:55.918Z,2.00
2022-11-12T10:49:03.593Z,2.80
2022-11-12T10:54:22.918Z,2.30
2022-11-12T10:59:26.514Z,2.30
2022-11-12T11:04:33.622Z,2.30
2022-11-12T11:09:36.647Z,2.10
2022-11-12T11:14:40.621Z,2.30
2022-11-12T11:19:45.085Z,2.40
2022-11-12T11:24:59.503Z,2.22
2022-11-12T11:30:11.310Z,2.55
2022-11-12T11:35:25.819Z,2.30
2022-11-12T11:40:32.662Z,2.25
2022-11-12T11:45:54.298Z,2.38
2022-11-12T11:51:04.032Z,2.20
2022-11-12T11:56:14.070Z,1.88
2022-11-12T12:01:26.702Z,2.22
2022-11-12T12:06:33.138Z,2.17
2022-11-12T12:11:43.997Z,2.03
2022-11-12T12:17:03.982Z,2.08
2022-11-12T12:22:15.466Z,1.98
2022-11-12T12:27:22.697Z,2.40
2022-11-12T12:32:30.561Z,1.92
2022-11-12T12:37:40.396Z,2.50
2022-11-12T12:42:48.983Z,2.17
2022-11-12T12:47:53.191Z,1.98
2022-11-12T12:53:17.042Z,1.90
2022-11-12T12:58:27.247Z,2.35
2022-11-12T13:03:53.860Z,1.98
2022-11-12T13:09:02.888Z,1.90
2022-11-12T13:14:39.491Z,1.67
2022-11-12T13:19:47.006Z,2.10
2022-11-12T13:25:06.074Z,2.03
2022-11-12T13:30:09.881Z,2.10
2022-11-12T13:35:31.083Z,2.10
2022-11-12T13:40:41.170Z,1.98
2022-11-12T13:45:49.013Z,2.30
2022-11-12T13:50:56.030Z,2.03
2022-11-12T13:56:00.618Z,1.90
2022-11-12T14:01:05.214Z,2.30
2022-11-12T14:06:16.963Z,2.20
2022-11-12T14:11:49.901Z,2.42
2022-11-12T14:17:21.964Z,2.05
2022-11-12T14:22:25.820Z,2.00
2022-11-12T14:27:37.558Z,2.15
2022-11-12T14:32:41.863Z,2.30
2022-11-12T14:37:52.130Z,2.35
2022-11-12T14:42:56.957Z,2.20
2022-11-12T14:47:59.937Z,2.38
2022-11-12T14:53:07.130Z,2.30
2022-11-12T14:58:16.749Z,2.10
2022-11-12T15:03:22.698Z,2.10
2022-11-12T15:08:34.040Z,2.83
2022-11-12T15:13:42.275Z,4.10
2022-11-12T15:18:45.530Z,5.57
2022-11-12T15:23:49.823Z,171.55
2022-11-12T15:29:01.619Z,83.47
2022-11-12T15:34:30.543Z,57.45
2022-11-12T15:39:40.955Z,47.28
2022-11-12T15:44:46.869Z,41.40
2022-11-12T15:49:51.319Z,35.13
2022-11-12T15:54:54.636Z,32.05
2022-11-12T16:00:07.606Z,28.52
2022-11-12T16:05:14.498Z,27.65
2022-11-12T16:10:19.719Z,24.85
2022-11-12T16:15:25.538Z,24.67
2022-11-12T16:20:31.158Z,22.85
2022-11-12T16:25:36.716Z,21.90
2022-11-12T16:30:41.340Z,20.10
2022-11-12T16:35:44.449Z,19.73
2022-11-12T16:40:47.502Z,18.50
2022-11-12T16:45:51.856Z,18.55
2022-11-12T16:50:54.813Z,17.50
2022-11-12T16:55:58.263Z,16.58
2022-11-12T17:01:02.750Z,16.25
2022-11-12T17:06:06.485Z,15.98
2022-11-12T17:11:10.126Z,39.40
2022-11-12T17:16:14.733Z,27.83
2022-11-12T17:21:19.370Z,30.95
2022-11-12T17:26:22.992Z,33.08
2022-11-12T17:31:27.378Z,30.77
2022-11-12T17:36:30.441Z,28.20
2022-11-12T17:41:33.519Z,24.20
2022-11-12T17:46:37.864Z,23.10
2022-11-12T17:51:41.431Z,23.05
2022-11-12T17:56:44.499Z,23.55
2022-11-12T18:01:48.860Z,26.95
2022-11-12T18:06:51.906Z,28.58
2022-11-12T18:11:56.607Z,26.13
2022-11-12T18:17:01.567Z,25.70
2022-11-12T18:22:04.580Z,22.38
2022-11-12T18:27:07.543Z,22.77
2022-11-12T18:32:11.890Z,21.40
2022-11-12T18:37:15.264Z,19.95
2022-11-12T18:42:18.234Z,18.80
2022-11-12T18:47:22.655Z,18.05
2022-11-12T18:52:25.681Z,18.67
2022-11-12T18:57:28.670Z,17.25
2022-11-12T19:02:33.003Z,17.15
2022-11-12T19:07:35.997Z,17.33
2022-11-12T19:12:39.016Z,16.30
2022-11-12T19:17:43.386Z,16.25
2022-11-12T19:22:46.378Z,14.60
2022-11-12T19:27:49.999Z,16.85
2022-11-12T19:32:54.301Z,17.42
2022-11-12T19:37:57.291Z,18.73
2022-11-12T19:43:00.271Z,17.00
2022-11-12T19:48:05.354Z,16.30
2022-11-12T19:53:08.346Z,15.80
2022-11-12T19:58:11.425Z,15.35
2022-11-12T20:03:15.836Z,15.10
2022-11-12T20:08:18.840Z,15.48
2022-11-12T20:13:21.902Z,14.65
2022-11-12T20:18:26.977Z,14.73
2022-11-12T20:23:30.842Z,14.40
2022-11-12T20:28:34.549Z,13.82
2022-11-12T20:33:42.274Z,13.10
2022-11-12T20:38:47.456Z,13.30
2022-11-12T20:43:53.839Z,11.75
2022-11-12T20:48:58.253Z,12.15
2022-11-12T20:54:01.231Z,12.02
2022-11-12T20:59:04.220Z,12.23
2022-11-12T21:04:08.562Z,11.95
2022-11-12T21:09:11.716Z,11.13
2022-11-12T21:14:15.246Z,10.38
2022-11-12T21:19:19.626Z,10.80
2022-11-12T21:24:22.622Z,10.48
2022-11-12T21:29:25.606Z,10.50
2022-11-12T21:34:30.058Z,10.55
2022-11-12T21:39:33.046Z,10.07
2022-11-12T21:44:36.048Z,10.45
2022-11-12T21:49:40.439Z,9.60
2022-11-12T21:54:43.401Z,9.27
2022-11-12T21:59:46.415Z,9.40
2022-11-12T22:04:50.746Z,9.20
2022-11-12T22:09:56.756Z,8.55
2022-11-12T22:15:00.125Z,9.52
2022-11-12T22:20:05.074Z,8.13
2022-11-12T22:25:08.596Z,8.52
2022-11-12T22:30:12.628Z,7.20
2022-11-12T22:35:17.062Z,6.78
2022-11-12T22:40:20.030Z,7.75
2022-11-12T22:45:23.059Z,39.58
2022-11-12T22:50:27.438Z,43.35
2022-11-12T22:55:30.429Z,31.88
2022-11-12T23:00:33.716Z,28.98
2022-11-12T23:05:38.074Z,23.67
2022-11-12T23:10:45.588Z,22.80
2022-11-12T23:15:49.216Z,20.23
2022-11-12T23:20:53.546Z,20.02
2022-11-12T23:26:01.982Z,18.00
2022-11-12T23:31:06.010Z,18.50
2022-11-12T23:36:12.153Z,16.45
2022-11-12T23:41:17.433Z,13.85
2022-11-12T23:46:20.409Z,12.85
2022-11-12T23:51:24.865Z,13.00
2022-11-12T23:56:27.827Z,11.40
